ボゴタ の空港の天気 - METARとTAF

エルドラド国際空港(ボコダ) ( SKBO / BOG ) - コロンビア ボゴタ
飛行場実況気象(Metar)
観測時間10/21 10:00 COT (10/21 15:00 UTC)
風向・風速南南東 5m/s
視程10km以上
天気現象
全天の8割程度の雲 雲底高度 610m
全天の4割程度の雲 雲底高度 2130m
気温18℃
湿度56%
気圧1029hPa
METARSKBO 211500Z 15009KT 9999 BKN020 SCT070 18/09 A3039 NOSIG
過去の天気等 Google飛行場航空写真 Wunderground天気予報

過去48時間のMETAR

飛行場予報(TAF)
発表時間: 10/21 05:30 COT (10/21 10:30 UTC)
予報対象時間: 21日7時 COT ~ 22日7時 COT
風向・風速東南東 3m/s
視程10km以上
少しの雲 雲底高度 610m
全天の4割程度の雲 雲底高度 2440m
21日10時 COT ~ 21日12時 COT に徐々に
風向・風速西南西 6m/s
全天の4割程度の雲 雲底高度 610m
21日16時 COT から 確率 40% で
天気現象霧雨
全天の8割程度の雲 雲底高度 520m
21日19時 COT ~ 21日21時 COT に徐々に
風向・風速北東 3m/s
TAF SKBO 211030Z 2112/2212 12006KT 9999 FEW020 SCT080
BECMG 2115/2117 25012KT SCT020
PROB40 2121/2123 DZ BKN017
BECMG 2200/2202 05006KT TX21/2018Z TN10/2209Z